Village of Loch Lloyd, Missouri
Current Conditions -  °F | °C
As of 9:53 AM on Thursday 29 Jan 2015 (Local Time) from KOJC Reporting Station
Overcast Overcast  
Wind Chill: 29°   Ceiling: 2300
Heat Index: 38°   Visibility: 10mi
Dew Point: 28°   Wind: 17mph
Humidity: 68%   Direction: 350°N
Pressure: 30.3"   Gusts: 28mph
Location:  38.7873°N, 94.553°W
Report Text: KOJC 291553Z 35015G24KT 10SM OVC023 03/M02 A3030 RMK AO2 PK WND 01026/1454 SLP264 T00331022
Loading
Personal Weather Stations






























Interactive Weather Map New forecast layout! Learn more

10-Day Weather Forecast

Advertisements
Track Severe Weather on mobile